sim
Sign-in with your pilot id or email,
or register
Callsign
Passwort

Schedule Details

Flight Number: OEO1765
Departure: Verona Airport (LIPX) at 10:50
Arrival: Munich Airport (EDDM) at 12:00

Weather Information
Getting current METAR information for LIPX 240350Z AUTO 04002KT 4800 BR NCD 16/15 Q1010
Getting current METAR information for EDDM 240350Z VRB01KT CAVOK 10/10 Q1009 NOSIG

Schedule Frequency

Route Map